sensor_id;sensor_type;location;lat;lon;timestamp;temperature;humidity
42141;DHT22;27809;51.864;5.646;2023-03-19T00:01:46;10.50;99.90
42141;DHT22;27809;51.864;5.646;2023-03-19T00:04:12;10.60;99.90
42141;DHT22;27809;51.864;5.646;2023-03-19T00:06:38;10.60;99.90
42141;DHT22;27809;51.864;5.646;2023-03-19T00:09:03;10.60;99.90
42141;DHT22;27809;51.864;5.646;2023-03-19T00:11:29;10.50;99.90
42141;DHT22;27809;51.864;5.646;2023-03-19T00:13:54;10.50;99.90
42141;DHT22;27809;51.864;5.646;2023-03-19T00:16:20;10.50;99.90
42141;DHT22;27809;51.864;5.646;2023-03-19T00:18:46;10.50;99.90
42141;DHT22;27809;51.864;5.646;2023-03-19T00:21:12;10.40;99.90
42141;DHT22;27809;51.864;5.646;2023-03-19T00:23:38;10.30;99.90
42141;DHT22;27809;51.864;5.646;2023-03-19T00:26:03;10.50;99.90
42141;DHT22;27809;51.864;5.646;2023-03-19T00:28:29;10.40;99.90
42141;DHT22;27809;51.864;5.646;2023-03-19T00:30:55;10.30;99.90
42141;DHT22;27809;51.864;5.646;2023-03-19T00:33:21;10.40;99.90
42141;DHT22;27809;51.864;5.646;2023-03-19T00:35:46;10.40;99.90
42141;DHT22;27809;51.864;5.646;2023-03-19T00:38:12;10.30;99.90
42141;DHT22;27809;51.864;5.646;2023-03-19T00:40:38;10.40;99.90
42141;DHT22;27809;51.864;5.646;2023-03-19T00:43:03;10.30;99.90
42141;DHT22;27809;51.864;5.646;2023-03-19T00:45:29;10.30;99.90
42141;DHT22;27809;51.864;5.646;2023-03-19T00:47:55;10.30;99.90
42141;DHT22;27809;51.864;5.646;2023-03-19T00:50:22;10.40;99.90
42141;DHT22;27809;51.864;5.646;2023-03-19T00:52:49;10.50;99.90
42141;DHT22;27809;51.864;5.646;2023-03-19T00:55:14;10.40;99.90
42141;DHT22;27809;51.864;5.646;2023-03-19T00:57:40;10.30;99.90
42141;DHT22;27809;51.864;5.646;2023-03-19T01:00:06;10.20;99.90
42141;DHT22;27809;51.864;5.646;2023-03-19T01:02:33;10.20;99.90
42141;DHT22;27809;51.864;5.646;2023-03-19T01:04:58;10.20;99.90
42141;DHT22;27809;51.864;5.646;2023-03-19T01:07:24;10.30;99.90
42141;DHT22;27809;51.864;5.646;2023-03-19T01:09:49;10.20;99.90
42141;DHT22;27809;51.864;5.646;2023-03-19T01:12:16;10.30;99.90
42141;DHT22;27809;51.864;5.646;2023-03-19T01:14:43;10.20;99.90
42141;DHT22;27809;51.864;5.646;2023-03-19T01:17:09;10.20;99.90
42141;DHT22;27809;51.864;5.646;2023-03-19T01:19:35;10.30;99.90
42141;DHT22;27809;51.864;5.646;2023-03-19T01:22:00;10.20;99.90
42141;DHT22;27809;51.864;5.646;2023-03-19T01:24:29;10.20;99.90
42141;DHT22;27809;51.864;5.646;2023-03-19T01:26:55;10.10;99.90
42141;DHT22;27809;51.864;5.646;2023-03-19T01:29:20;10.10;99.90
42141;DHT22;27809;51.864;5.646;2023-03-19T01:31:46;10.00;99.90
42141;DHT22;27809;51.864;5.646;2023-03-19T01:34:11;9.90;99.90
42141;DHT22;27809;51.864;5.646;2023-03-19T01:36:37;9.80;99.90
42141;DHT22;27809;51.864;5.646;2023-03-19T01:39:02;9.60;99.90
42141;DHT22;27809;51.864;5.646;2023-03-19T01:41:28;9.60;99.90
42141;DHT22;27809;51.864;5.646;2023-03-19T01:43:53;9.60;99.90
42141;DHT22;27809;51.864;5.646;2023-03-19T01:46:26;9.70;99.90
42141;DHT22;27809;51.864;5.646;2023-03-19T01:48:53;9.60;99.90
42141;DHT22;27809;51.864;5.646;2023-03-19T01:51:24;9.50;99.90
42141;DHT22;27809;51.864;5.646;2023-03-19T01:53:52;9.40;99.90
42141;DHT22;27809;51.864;5.646;2023-03-19T01:56:31;9.50;99.90
42141;DHT22;27809;51.864;5.646;2023-03-19T01:59:02;9.60;99.90
42141;DHT22;27809;51.864;5.646;2023-03-19T02:01:29;9.50;99.90
42141;DHT22;27809;51.864;5.646;2023-03-19T02:03:58;9.60;99.90
42141;DHT22;27809;51.864;5.646;2023-03-19T02:06:25;9.70;99.90
42141;DHT22;27809;51.864;5.646;2023-03-19T02:08:52;9.70;99.90
42141;DHT22;27809;51.864;5.646;2023-03-19T02:11:19;9.70;99.90
42141;DHT22;27809;51.864;5.646;2023-03-19T02:13:46;9.80;99.90
42141;DHT22;27809;51.864;5.646;2023-03-19T02:16:12;9.90;99.90
42141;DHT22;27809;51.864;5.646;2023-03-19T02:18:37;9.70;99.90
42141;DHT22;27809;51.864;5.646;2023-03-19T02:21:13;9.70;99.90
42141;DHT22;27809;51.864;5.646;2023-03-19T02:24:03;9.70;99.90
42141;DHT22;27809;51.864;5.646;2023-03-19T02:26:31;9.70;99.90
42141;DHT22;27809;51.864;5.646;2023-03-19T02:28:56;9.60;99.90
42141;DHT22;27809;51.864;5.646;2023-03-19T02:31:23;9.60;99.90
42141;DHT22;27809;51.864;5.646;2023-03-19T02:34:14;9.60;99.90
42141;DHT22;27809;51.864;5.646;2023-03-19T02:36:51;9.50;99.90
42141;DHT22;27809;51.864;5.646;2023-03-19T02:39:42;9.50;99.90
42141;DHT22;27809;51.864;5.646;2023-03-19T02:42:12;9.50;99.90
42141;DHT22;27809;51.864;5.646;2023-03-19T02:44:38;9.50;99.90
42141;DHT22;27809;51.864;5.646;2023-03-19T02:47:04;9.60;99.90
42141;DHT22;27809;51.864;5.646;2023-03-19T02:49:30;9.70;99.90
42141;DHT22;27809;51.864;5.646;2023-03-19T02:51:55;9.80;99.90
42141;DHT22;27809;51.864;5.646;2023-03-19T02:54:21;9.70;99.90
42141;DHT22;27809;51.864;5.646;2023-03-19T02:56:47;9.70;99.90
42141;DHT22;27809;51.864;5.646;2023-03-19T02:59:13;9.70;99.90
42141;DHT22;27809;51.864;5.646;2023-03-19T03:01:39;9.60;99.90
42141;DHT22;27809;51.864;5.646;2023-03-19T03:04:05;9.60;99.90
42141;DHT22;27809;51.864;5.646;2023-03-19T03:06:30;9.60;99.90
42141;DHT22;27809;51.864;5.646;2023-03-19T03:08:56;9.70;99.90
42141;DHT22;27809;51.864;5.646;2023-03-19T03:11:22;9.70;99.90
42141;DHT22;27809;51.864;5.646;2023-03-19T03:13:48;9.60;99.90
42141;DHT22;27809;51.864;5.646;2023-03-19T03:16:13;9.70;99.90
42141;DHT22;27809;51.864;5.646;2023-03-19T03:18:39;9.80;99.90
42141;DHT22;27809;51.864;5.646;2023-03-19T03:21:05;9.80;99.90
42141;DHT22;27809;51.864;5.646;2023-03-19T03:23:31;9.80;99.90
42141;DHT22;27809;51.864;5.646;2023-03-19T03:25:57;9.80;99.90
42141;DHT22;27809;51.864;5.646;2023-03-19T03:28:22;9.70;99.90
42141;DHT22;27809;51.864;5.646;2023-03-19T03:30:49;9.70;99.90
42141;DHT22;27809;51.864;5.646;2023-03-19T03:33:14;9.70;99.90
42141;DHT22;27809;51.864;5.646;2023-03-19T03:35:41;9.70;99.90
42141;DHT22;27809;51.864;5.646;2023-03-19T03:38:07;9.70;99.90
42141;DHT22;27809;51.864;5.646;2023-03-19T03:40:32;9.70;99.90
42141;DHT22;27809;51.864;5.646;2023-03-19T03:42:59;9.70;99.90
42141;DHT22;27809;51.864;5.646;2023-03-19T03:45:25;9.60;99.90
42141;DHT22;27809;51.864;5.646;2023-03-19T03:47:51;9.60;99.90
42141;DHT22;27809;51.864;5.646;2023-03-19T03:50:16;9.60;99.90
42141;DHT22;27809;51.864;5.646;2023-03-19T03:52:42;9.60;99.90
42141;DHT22;27809;51.864;5.646;2023-03-19T03:55:08;9.50;99.90
42141;DHT22;27809;51.864;5.646;2023-03-19T03:57:34;9.40;99.90
42141;DHT22;27809;51.864;5.646;2023-03-19T04:00:00;9.20;99.90
42141;DHT22;27809;51.864;5.646;2023-03-19T04:02:25;9.10;99.90
42141;DHT22;27809;51.864;5.646;2023-03-19T04:04:52;9.00;99.90
42141;DHT22;27809;51.864;5.646;2023-03-19T04:07:18;8.90;99.90
42141;DHT22;27809;51.864;5.646;2023-03-19T04:09:44;8.80;99.90
42141;DHT22;27809;51.864;5.646;2023-03-19T04:12:11;8.70;99.90
42141;DHT22;27809;51.864;5.646;2023-03-19T04:14:37;8.50;99.90
42141;DHT22;27809;51.864;5.646;2023-03-19T04:17:02;8.50;99.90
42141;DHT22;27809;51.864;5.646;2023-03-19T04:19:29;8.30;99.90
42141;DHT22;27809;51.864;5.646;2023-03-19T04:21:56;8.20;99.90
42141;DHT22;27809;51.864;5.646;2023-03-19T04:24:22;8.20;99.90
42141;DHT22;27809;51.864;5.646;2023-03-19T04:26:47;8.20;99.90
42141;DHT22;27809;51.864;5.646;2023-03-19T04:29:14;8.20;99.90
42141;DHT22;27809;51.864;5.646;2023-03-19T04:31:40;8.00;99.90
42141;DHT22;27809;51.864;5.646;2023-03-19T04:34:05;8.10;99.90
42141;DHT22;27809;51.864;5.646;2023-03-19T04:36:31;8.10;99.90
42141;DHT22;27809;51.864;5.646;2023-03-19T04:38:57;8.10;99.90
42141;DHT22;27809;51.864;5.646;2023-03-19T04:41:22;8.30;99.90
42141;DHT22;27809;51.864;5.646;2023-03-19T04:43:48;8.50;99.90
42141;DHT22;27809;51.864;5.646;2023-03-19T04:46:14;8.60;99.90
42141;DHT22;27809;51.864;5.646;2023-03-19T04:48:39;8.70;99.90
42141;DHT22;27809;51.864;5.646;2023-03-19T04:51:05;8.80;99.90
42141;DHT22;27809;51.864;5.646;2023-03-19T04:53:34;8.90;99.90
42141;DHT22;27809;51.864;5.646;2023-03-19T04:56:00;9.00;99.90
42141;DHT22;27809;51.864;5.646;2023-03-19T04:58:26;8.80;99.90
42141;DHT22;27809;51.864;5.646;2023-03-19T05:00:52;8.90;99.90
42141;DHT22;27809;51.864;5.646;2023-03-19T05:03:18;9.00;99.90
42141;DHT22;27809;51.864;5.646;2023-03-19T05:05:43;9.00;99.90
42141;DHT22;27809;51.864;5.646;2023-03-19T05:08:09;8.90;99.90
42141;DHT22;27809;51.864;5.646;2023-03-19T05:10:35;9.00;99.90
42141;DHT22;27809;51.864;5.646;2023-03-19T05:13:02;9.00;99.90
42141;DHT22;27809;51.864;5.646;2023-03-19T05:15:27;9.10;99.90
42141;DHT22;27809;51.864;5.646;2023-03-19T05:17:53;9.10;99.90
42141;DHT22;27809;51.864;5.646;2023-03-19T05:20:18;9.10;99.90
42141;DHT22;27809;51.864;5.646;2023-03-19T05:22:44;9.10;99.90
42141;DHT22;27809;51.864;5.646;2023-03-19T05:25:11;8.90;99.90
42141;DHT22;27809;51.864;5.646;2023-03-19T05:27:36;8.90;99.90
42141;DHT22;27809;51.864;5.646;2023-03-19T05:30:03;8.90;99.90
42141;DHT22;27809;51.864;5.646;2023-03-19T05:32:29;8.90;99.90
42141;DHT22;27809;51.864;5.646;2023-03-19T05:34:54;8.80;99.90
42141;DHT22;27809;51.864;5.646;2023-03-19T05:37:20;8.80;99.90
42141;DHT22;27809;51.864;5.646;2023-03-19T05:39:46;8.80;99.90
42141;DHT22;27809;51.864;5.646;2023-03-19T05:42:11;8.80;99.90
42141;DHT22;27809;51.864;5.646;2023-03-19T05:44:37;8.80;99.90
42141;DHT22;27809;51.864;5.646;2023-03-19T05:47:02;8.80;99.90
42141;DHT22;27809;51.864;5.646;2023-03-19T05:49:28;8.70;99.90
42141;DHT22;27809;51.864;5.646;2023-03-19T05:51:54;8.60;99.90
42141;DHT22;27809;51.864;5.646;2023-03-19T05:54:19;8.80;99.90
42141;DHT22;27809;51.864;5.646;2023-03-19T05:56:45;8.70;99.90
42141;DHT22;27809;51.864;5.646;2023-03-19T05:59:10;8.80;99.90
42141;DHT22;27809;51.864;5.646;2023-03-19T06:01:36;8.90;99.90
42141;DHT22;27809;51.864;5.646;2023-03-19T06:04:01;9.00;99.90
42141;DHT22;27809;51.864;5.646;2023-03-19T06:06:27;9.20;99.90
42141;DHT22;27809;51.864;5.646;2023-03-19T06:08:52;9.10;99.90
42141;DHT22;27809;51.864;5.646;2023-03-19T06:11:18;9.20;99.90
42141;DHT22;27809;51.864;5.646;2023-03-19T06:13:43;9.20;99.90
42141;DHT22;27809;51.864;5.646;2023-03-19T06:16:10;9.20;99.90
42141;DHT22;27809;51.864;5.646;2023-03-19T06:18:36;9.20;99.90
42141;DHT22;27809;51.864;5.646;2023-03-19T06:21:02;9.10;99.90
42141;DHT22;27809;51.864;5.646;2023-03-19T06:23:28;9.20;99.90
42141;DHT22;27809;51.864;5.646;2023-03-19T06:25:54;9.30;99.90
42141;DHT22;27809;51.864;5.646;2023-03-19T06:28:20;9.30;99.90
42141;DHT22;27809;51.864;5.646;2023-03-19T06:30:45;9.40;99.90
42141;DHT22;27809;51.864;5.646;2023-03-19T06:33:11;9.40;99.90
42141;DHT22;27809;51.864;5.646;2023-03-19T06:35:36;9.50;99.90
42141;DHT22;27809;51.864;5.646;2023-03-19T06:38:02;9.40;99.90
42141;DHT22;27809;51.864;5.646;2023-03-19T06:40:27;9.30;99.90
42141;DHT22;27809;51.864;5.646;2023-03-19T06:42:53;9.40;99.90
42141;DHT22;27809;51.864;5.646;2023-03-19T06:45:18;9.20;99.90
42141;DHT22;27809;51.864;5.646;2023-03-19T06:47:45;9.20;99.90
42141;DHT22;27809;51.864;5.646;2023-03-19T06:50:11;9.20;99.90
42141;DHT22;27809;51.864;5.646;2023-03-19T06:52:38;9.10;99.90
42141;DHT22;27809;51.864;5.646;2023-03-19T06:55:04;9.20;99.90
42141;DHT22;27809;51.864;5.646;2023-03-19T06:57:30;9.30;99.90
42141;DHT22;27809;51.864;5.646;2023-03-19T06:59:56;9.20;99.90
42141;DHT22;27809;51.864;5.646;2023-03-19T07:02:21;9.30;99.90
42141;DHT22;27809;51.864;5.646;2023-03-19T07:04:47;10.00;99.90
42141;DHT22;27809;51.864;5.646;2023-03-19T07:07:13;9.70;99.90
42141;DHT22;27809;51.864;5.646;2023-03-19T07:09:38;9.60;99.90
42141;DHT22;27809;51.864;5.646;2023-03-19T07:12:05;9.60;99.90
42141;DHT22;27809;51.864;5.646;2023-03-19T07:14:30;9.70;99.90
42141;DHT22;27809;51.864;5.646;2023-03-19T07:16:56;10.00;99.90
42141;DHT22;27809;51.864;5.646;2023-03-19T07:19:21;10.10;99.90
42141;DHT22;27809;51.864;5.646;2023-03-19T07:21:47;10.10;99.90
42141;DHT22;27809;51.864;5.646;2023-03-19T07:24:13;10.20;99.90
42141;DHT22;27809;51.864;5.646;2023-03-19T07:26:38;10.30;99.90
42141;DHT22;27809;51.864;5.646;2023-03-19T07:29:04;10.20;99.90
42141;DHT22;27809;51.864;5.646;2023-03-19T07:31:30;10.40;99.90
42141;DHT22;27809;51.864;5.646;2023-03-19T07:33:56;10.40;99.90
42141;DHT22;27809;51.864;5.646;2023-03-19T07:36:21;10.40;99.90
42141;DHT22;27809;51.864;5.646;2023-03-19T07:38:47;10.50;99.90
42141;DHT22;27809;51.864;5.646;2023-03-19T07:41:13;10.60;99.90
42141;DHT22;27809;51.864;5.646;2023-03-19T07:43:38;10.60;99.90
42141;DHT22;27809;51.864;5.646;2023-03-19T07:46:04;15.50;99.90
42141;DHT22;27809;51.864;5.646;2023-03-19T07:48:30;18.70;34.30
42141;DHT22;27809;51.864;5.646;2023-03-19T07:50:56;18.60;18.60
42141;DHT22;27809;51.864;5.646;2023-03-19T07:53:21;14.80;76.10
42141;DHT22;27809;51.864;5.646;2023-03-19T07:55:47;12.70;99.90
42141;DHT22;27809;51.864;5.646;2023-03-19T07:58:13;12.60;99.90
42141;DHT22;27809;51.864;5.646;2023-03-19T08:00:39;13.70;99.00
42141;DHT22;27809;51.864;5.646;2023-03-19T08:03:04;13.30;99.70
42141;DHT22;27809;51.864;5.646;2023-03-19T08:05:30;12.70;99.90
42141;DHT22;27809;51.864;5.646;2023-03-19T08:07:55;12.40;99.90
42141;DHT22;27809;51.864;5.646;2023-03-19T08:10:21;12.30;99.90
42141;DHT22;27809;51.864;5.646;2023-03-19T08:12:47;12.40;99.90
42141;DHT22;27809;51.864;5.646;2023-03-19T08:15:13;12.40;99.90
42141;DHT22;27809;51.864;5.646;2023-03-19T08:17:39;14.90;99.90
42141;DHT22;27809;51.864;5.646;2023-03-19T08:20:07;18.70;20.80
42141;DHT22;27809;51.864;5.646;2023-03-19T08:22:35;16.70;23.30
42141;DHT22;27809;51.864;5.646;2023-03-19T08:25:01;13.10;91.30
42141;DHT22;27809;51.864;5.646;2023-03-19T08:27:27;14.20;73.00
42141;DHT22;27809;51.864;5.646;2023-03-19T08:29:54;12.80;97.50
42141;DHT22;27809;51.864;5.646;2023-03-19T08:32:20;13.00;99.90
42141;DHT22;27809;51.864;5.646;2023-03-19T08:34:46;13.80;99.90
42141;DHT22;27809;51.864;5.646;2023-03-19T08:37:11;13.30;99.90
42141;DHT22;27809;51.864;5.646;2023-03-19T08:39:37;12.40;99.90
42141;DHT22;27809;51.864;5.646;2023-03-19T08:42:02;12.20;99.90
42141;DHT22;27809;51.864;5.646;2023-03-19T08:44:28;11.80;99.90
42141;DHT22;27809;51.864;5.646;2023-03-19T08:46:53;12.00;99.90
42141;DHT22;27809;51.864;5.646;2023-03-19T08:49:19;12.90;99.90
42141;DHT22;27809;51.864;5.646;2023-03-19T08:51:45;12.90;99.90
42141;DHT22;27809;51.864;5.646;2023-03-19T08:54:10;14.30;96.50
42141;DHT22;27809;51.864;5.646;2023-03-19T08:56:38;14.40;97.90
42141;DHT22;27809;51.864;5.646;2023-03-19T08:59:03;14.40;93.30
42141;DHT22;27809;51.864;5.646;2023-03-19T09:01:29;13.40;97.70
42141;DHT22;27809;51.864;5.646;2023-03-19T09:03:55;12.80;99.90
42141;DHT22;27809;51.864;5.646;2023-03-19T09:06:20;13.50;99.90
42141;DHT22;27809;51.864;5.646;2023-03-19T09:08:46;14.80;94.20
42141;DHT22;27809;51.864;5.646;2023-03-19T09:11:11;15.60;72.10
42141;DHT22;27809;51.864;5.646;2023-03-19T09:13:39;15.50;75.70
42141;DHT22;27809;51.864;5.646;2023-03-19T09:16:05;14.90;76.70
42141;DHT22;27809;51.864;5.646;2023-03-19T09:18:32;14.60;71.20
42141;DHT22;27809;51.864;5.646;2023-03-19T09:20:57;14.90;74.70
42141;DHT22;27809;51.864;5.646;2023-03-19T09:23:24;15.60;66.20
42141;DHT22;27809;51.864;5.646;2023-03-19T09:25:50;15.90;63.30
42141;DHT22;27809;51.864;5.646;2023-03-19T09:28:15;17.30;37.20
42141;DHT22;27809;51.864;5.646;2023-03-19T09:30:41;16.40;44.40
42141;DHT22;27809;51.864;5.646;2023-03-19T09:33:09;15.90;58.70
42141;DHT22;27809;51.864;5.646;2023-03-19T09:35:34;15.50;51.90
42141;DHT22;27809;51.864;5.646;2023-03-19T09:38:01;14.50;71.80
42141;DHT22;27809;51.864;5.646;2023-03-19T09:43:08;17.00;33.50
42141;DHT22;27809;51.864;5.646;2023-03-19T09:45:44;16.40;28.90
42141;DHT22;27809;51.864;5.646;2023-03-19T09:48:15;16.10;47.10
42141;DHT22;27809;51.864;5.646;2023-03-19T09:50:43;15.80;41.20
42141;DHT22;27809;51.864;5.646;2023-03-19T09:53:38;15.70;57.60
42141;DHT22;27809;51.864;5.646;2023-03-19T09:56:06;19.20;6.70
42141;DHT22;27809;51.864;5.646;2023-03-19T09:58:36;19.90;1.00
42141;DHT22;27809;51.864;5.646;2023-03-19T10:01:02;20.60;1.00
42141;DHT22;27809;51.864;5.646;2023-03-19T10:03:45;19.50;1.00
42141;DHT22;27809;51.864;5.646;2023-03-19T10:06:33;19.40;1.10
42141;DHT22;27809;51.864;5.646;2023-03-19T10:14:57;22.20;1.00
42141;DHT22;27809;51.864;5.646;2023-03-19T10:17:32;22.10;1.00
42141;DHT22;27809;51.864;5.646;2023-03-19T10:20:09;22.50;1.00
42141;DHT22;27809;51.864;5.646;2023-03-19T10:22:49;23.10;1.00
42141;DHT22;27809;51.864;5.646;2023-03-19T10:25:21;22.60;1.00
42141;DHT22;27809;51.864;5.646;2023-03-19T10:27:55;21.10;1.00
42141;DHT22;27809;51.864;5.646;2023-03-19T10:30:24;20.60;1.00
42141;DHT22;27809;51.864;5.646;2023-03-19T10:33:05;22.50;1.00
42141;DHT22;27809;51.864;5.646;2023-03-19T10:35:43;23.20;1.00
42141;DHT22;27809;51.864;5.646;2023-03-19T10:38:20;23.40;1.00
42141;DHT22;27809;51.864;5.646;2023-03-19T10:41:04;22.60;1.00
42141;DHT22;27809;51.864;5.646;2023-03-19T10:43:36;23.20;1.00
42141;DHT22;27809;51.864;5.646;2023-03-19T10:46:03;23.10;1.00
42141;DHT22;27809;51.864;5.646;2023-03-19T10:48:28;22.80;1.00
42141;DHT22;27809;51.864;5.646;2023-03-19T10:51:03;23.30;1.00
42141;DHT22;27809;51.864;5.646;2023-03-19T10:53:36;22.30;1.00
42141;DHT22;27809;51.864;5.646;2023-03-19T10:56:09;22.60;1.00
42141;DHT22;27809;51.864;5.646;2023-03-19T10:58:40;22.70;1.00
42141;DHT22;27809;51.864;5.646;2023-03-19T11:01:20;21.70;1.00
42141;DHT22;27809;51.864;5.646;2023-03-19T11:03:56;21.80;1.00
42141;DHT22;27809;51.864;5.646;2023-03-19T11:06:31;20.70;1.00
42141;DHT22;27809;51.864;5.646;2023-03-19T11:09:11;19.50;1.00
42141;DHT22;27809;51.864;5.646;2023-03-19T11:11:48;16.90;9.10
42141;DHT22;27809;51.864;5.646;2023-03-19T11:14:33;15.60;35.00
42141;DHT22;27809;51.864;5.646;2023-03-19T11:17:25;14.70;45.40
42141;DHT22;27809;51.864;5.646;2023-03-19T11:19:56;14.80;56.80
42141;DHT22;27809;51.864;5.646;2023-03-19T11:22:31;14.20;62.90
42141;DHT22;27809;51.864;5.646;2023-03-19T11:25:13;14.30;76.80
42141;DHT22;27809;51.864;5.646;2023-03-19T11:27:39;14.20;72.70
42141;DHT22;27809;51.864;5.646;2023-03-19T11:30:16;14.20;73.50
42141;DHT22;27809;51.864;5.646;2023-03-19T11:33:04;14.70;79.50
42141;DHT22;27809;51.864;5.646;2023-03-19T11:36:10;14.60;72.70
42141;DHT22;27809;51.864;5.646;2023-03-19T11:39:02;14.00;82.00
42141;DHT22;27809;51.864;5.646;2023-03-19T11:44:38;14.20;91.70
42141;DHT22;27809;51.864;5.646;2023-03-19T11:55:34;14.70;56.30
42141;DHT22;27809;51.864;5.646;2023-03-19T12:01:03;14.70;62.00
42141;DHT22;27809;51.864;5.646;2023-03-19T12:03:57;14.30;56.90
42141;DHT22;27809;51.864;5.646;2023-03-19T12:20:16;15.90;34.70
42141;DHT22;27809;51.864;5.646;2023-03-19T12:22:58;16.30;46.90
42141;DHT22;27809;51.864;5.646;2023-03-19T12:25:36;16.70;41.20
42141;DHT22;27809;51.864;5.646;2023-03-19T12:28:17;20.60;1.00
42141;DHT22;27809;51.864;5.646;2023-03-19T12:30:59;20.50;1.00
42141;DHT22;27809;51.864;5.646;2023-03-19T12:36:55;22.50;1.00
42141;DHT22;27809;51.864;5.646;2023-03-19T12:39:26;22.10;1.00
42141;DHT22;27809;51.864;5.646;2023-03-19T12:41:56;22.40;1.00
42141;DHT22;27809;51.864;5.646;2023-03-19T12:44:30;22.90;1.00
42141;DHT22;27809;51.864;5.646;2023-03-19T12:47:02;23.20;1.00
42141;DHT22;27809;51.864;5.646;2023-03-19T12:49:47;21.70;1.00
42141;DHT22;27809;51.864;5.646;2023-03-19T12:52:47;23.50;1.00
42141;DHT22;27809;51.864;5.646;2023-03-19T12:55:19;23.70;1.00
42141;DHT22;27809;51.864;5.646;2023-03-19T12:58:02;23.60;1.00
42141;DHT22;27809;51.864;5.646;2023-03-19T13:00:34;23.50;1.00
42141;DHT22;27809;51.864;5.646;2023-03-19T13:05:58;24.20;1.00
42141;DHT22;27809;51.864;5.646;2023-03-19T13:11:05;23.30;1.00
42141;DHT22;27809;51.864;5.646;2023-03-19T13:13:54;23.40;1.00
42141;DHT22;27809;51.864;5.646;2023-03-19T13:19:15;23.80;1.00
42141;DHT22;27809;51.864;5.646;2023-03-19T13:21:43;22.50;1.00
42141;DHT22;27809;51.864;5.646;2023-03-19T13:26:49;22.80;1.00
42141;DHT22;27809;51.864;5.646;2023-03-19T13:29:22;21.40;1.00
42141;DHT22;27809;51.864;5.646;2023-03-19T13:31:49;19.30;1.00
42141;DHT22;27809;51.864;5.646;2023-03-19T13:36:43;16.50;14.90
42141;DHT22;27809;51.864;5.646;2023-03-19T13:39:18;17.00;23.10
42141;DHT22;27809;51.864;5.646;2023-03-19T13:42:34;17.00;22.00
42141;DHT22;27809;51.864;5.646;2023-03-19T13:45:25;17.50;18.50
42141;DHT22;27809;51.864;5.646;2023-03-19T13:47:50;19.40;3.70
42141;DHT22;27809;51.864;5.646;2023-03-19T13:52:50;18.50;1.30
42141;DHT22;27809;51.864;5.646;2023-03-19T13:55:49;19.30;1.00
42141;DHT22;27809;51.864;5.646;2023-03-19T13:58:22;19.70;1.00
42141;DHT22;27809;51.864;5.646;2023-03-19T14:03:53;17.00;19.90
42141;DHT22;27809;51.864;5.646;2023-03-19T14:06:41;17.40;5.20
42141;DHT22;27809;51.864;5.646;2023-03-19T14:09:38;16.40;27.10
42141;DHT22;27809;51.864;5.646;2023-03-19T14:14:55;19.10;1.00
42141;DHT22;27809;51.864;5.646;2023-03-19T14:17:27;19.70;1.00
42141;DHT22;27809;51.864;5.646;2023-03-19T14:19:55;20.10;1.00
42141;DHT22;27809;51.864;5.646;2023-03-19T14:22:35;20.60;1.00
42141;DHT22;27809;51.864;5.646;2023-03-19T14:25:17;20.10;1.00
42141;DHT22;27809;51.864;5.646;2023-03-19T14:28:01;17.80;2.20
42141;DHT22;27809;51.864;5.646;2023-03-19T14:30:39;19.90;1.00
42141;DHT22;27809;51.864;5.646;2023-03-19T14:33:07;19.40;1.00
42141;DHT22;27809;51.864;5.646;2023-03-19T14:35:41;20.20;1.00
42141;DHT22;27809;51.864;5.646;2023-03-19T14:38:13;20.10;1.00
42141;DHT22;27809;51.864;5.646;2023-03-19T14:40:44;18.00;1.00
42141;DHT22;27809;51.864;5.646;2023-03-19T14:45:58;19.30;1.00
42141;DHT22;27809;51.864;5.646;2023-03-19T14:51:55;16.40;11.10
42141;DHT22;27809;51.864;5.646;2023-03-19T14:54:34;16.00;20.60
42141;DHT22;27809;51.864;5.646;2023-03-19T14:57:06;15.80;19.30
42141;DHT22;27809;51.864;5.646;2023-03-19T14:59:38;15.70;27.60
42141;DHT22;27809;51.864;5.646;2023-03-19T15:02:04;15.80;19.70
42141;DHT22;27809;51.864;5.646;2023-03-19T15:04:43;15.60;20.20
42141;DHT22;27809;51.864;5.646;2023-03-19T15:07:20;15.60;22.00
42141;DHT22;27809;51.864;5.646;2023-03-19T15:09:52;15.60;23.30
42141;DHT22;27809;51.864;5.646;2023-03-19T15:12:33;15.40;25.80
42141;DHT22;27809;51.864;5.646;2023-03-19T15:18:01;15.00;31.80
42141;DHT22;27809;51.864;5.646;2023-03-19T15:20:32;16.70;14.80
42141;DHT22;27809;51.864;5.646;2023-03-19T15:23:02;14.90;35.30
42141;DHT22;27809;51.864;5.646;2023-03-19T15:25:29;14.60;46.60
42141;DHT22;27809;51.864;5.646;2023-03-19T15:28:08;14.50;46.70
42141;DHT22;27809;51.864;5.646;2023-03-19T15:30:35;14.70;45.10
42141;DHT22;27809;51.864;5.646;2023-03-19T15:33:00;14.50;43.40
42141;DHT22;27809;51.864;5.646;2023-03-19T15:35:33;14.30;41.70
42141;DHT22;27809;51.864;5.646;2023-03-19T15:38:02;14.70;43.90
42141;DHT22;27809;51.864;5.646;2023-03-19T15:40:29;14.70;45.20
42141;DHT22;27809;51.864;5.646;2023-03-19T15:42:57;15.00;45.50
42141;DHT22;27809;51.864;5.646;2023-03-19T15:45:24;14.70;41.10
42141;DHT22;27809;51.864;5.646;2023-03-19T15:47:56;14.70;38.40
42141;DHT22;27809;51.864;5.646;2023-03-19T15:50:24;14.70;44.10
42141;DHT22;27809;51.864;5.646;2023-03-19T15:53:03;14.70;37.00
42141;DHT22;27809;51.864;5.646;2023-03-19T15:55:32;14.60;36.30
42141;DHT22;27809;51.864;5.646;2023-03-19T15:58:07;14.50;46.80
42141;DHT22;27809;51.864;5.646;2023-03-19T16:00:36;14.30;43.20
42141;DHT22;27809;51.864;5.646;2023-03-19T16:03:03;14.30;37.10
42141;DHT22;27809;51.864;5.646;2023-03-19T16:05:31;14.40;30.90
42141;DHT22;27809;51.864;5.646;2023-03-19T16:07:59;14.20;30.60
42141;DHT22;27809;51.864;5.646;2023-03-19T16:10:33;14.30;29.10
42141;DHT22;27809;51.864;5.646;2023-03-19T16:13:00;15.20;17.40
42141;DHT22;27809;51.864;5.646;2023-03-19T16:17:53;14.10;28.80
42141;DHT22;27809;51.864;5.646;2023-03-19T16:20:19;13.90;32.00
42141;DHT22;27809;51.864;5.646;2023-03-19T16:22:52;14.00;30.50
42141;DHT22;27809;51.864;5.646;2023-03-19T16:25:19;14.00;31.60
42141;DHT22;27809;51.864;5.646;2023-03-19T16:27:45;13.90;29.70
42141;DHT22;27809;51.864;5.646;2023-03-19T16:30:25;13.90;36.90
42141;DHT22;27809;51.864;5.646;2023-03-19T16:33:02;13.70;38.90
42141;DHT22;27809;51.864;5.646;2023-03-19T16:35:30;13.70;44.00
42141;DHT22;27809;51.864;5.646;2023-03-19T16:38:11;13.50;46.40
42141;DHT22;27809;51.864;5.646;2023-03-19T16:40:45;13.40;48.90
42141;DHT22;27809;51.864;5.646;2023-03-19T16:43:31;13.30;54.90
42141;DHT22;27809;51.864;5.646;2023-03-19T16:46:06;13.10;57.30
42141;DHT22;27809;51.864;5.646;2023-03-19T16:48:33;13.20;60.00
42141;DHT22;27809;51.864;5.646;2023-03-19T16:50:58;13.00;64.00
42141;DHT22;27809;51.864;5.646;2023-03-19T16:53:27;12.90;64.00
42141;DHT22;27809;51.864;5.646;2023-03-19T16:55:55;12.70;66.60
42141;DHT22;27809;51.864;5.646;2023-03-19T16:58:32;12.70;71.70
42141;DHT22;27809;51.864;5.646;2023-03-19T17:01:00;12.80;73.90
42141;DHT22;27809;51.864;5.646;2023-03-19T17:03:26;12.80;71.80
42141;DHT22;27809;51.864;5.646;2023-03-19T17:05:54;12.80;69.70
42141;DHT22;27809;51.864;5.646;2023-03-19T17:08:20;13.70;55.40